createdAt,value
2018-12-25T00:02:08.907Z,7.60
2018-12-25T00:04:40.753Z,7.60
2018-12-25T00:07:12.627Z,7.60
2018-12-25T00:09:44.599Z,7.60
2018-12-25T00:12:16.410Z,7.60
2018-12-25T00:14:48.193Z,7.60
2018-12-25T00:17:20.060Z,6.50
2018-12-25T00:19:51.890Z,7.70
2018-12-25T00:22:23.814Z,7.70
2018-12-25T00:24:55.710Z,7.70
2018-12-25T00:27:27.724Z,7.70
2018-12-25T00:29:59.802Z,7.70
2018-12-25T00:32:31.793Z,7.60
2018-12-25T00:35:03.623Z,7.70
2018-12-25T00:37:35.620Z,7.60
2018-12-25T00:40:07.502Z,7.60
2018-12-25T00:42:39.529Z,7.60
2018-12-25T00:45:11.579Z,7.50
2018-12-25T00:47:43.362Z,7.50
2018-12-25T00:50:15.195Z,7.50
2018-12-25T00:52:47.190Z,7.50
2018-12-25T00:55:19.160Z,7.40
2018-12-25T00:57:51.036Z,7.40
2018-12-25T01:00:22.958Z,7.40
2018-12-25T01:02:54.748Z,7.40
2018-12-25T01:05:26.537Z,7.40
2018-12-25T01:07:58.382Z,7.40
2018-12-25T01:10:30.245Z,7.40
2018-12-25T01:13:02.101Z,7.40
2018-12-25T01:15:33.881Z,7.30
2018-12-25T01:18:05.783Z,7.40
2018-12-25T01:20:37.720Z,7.40
2018-12-25T01:23:09.596Z,7.40
2018-12-25T01:25:41.677Z,7.50
2018-12-25T01:28:13.665Z,7.50
2018-12-25T01:30:45.419Z,7.50
2018-12-25T01:33:17.282Z,7.50
2018-12-25T01:35:49.065Z,7.50
2018-12-25T01:38:20.900Z,7.50
2018-12-25T01:40:52.714Z,7.40
2018-12-25T01:43:24.518Z,7.50
2018-12-25T01:45:56.514Z,7.50
2018-12-25T01:48:28.447Z,7.50
2018-12-25T01:51:00.704Z,7.50
2018-12-25T01:53:32.506Z,7.50
2018-12-25T01:56:04.409Z,7.50
2018-12-25T01:58:36.542Z,7.50
2018-12-25T02:01:08.347Z,7.50
2018-12-25T02:03:41.387Z,7.50
2018-12-25T02:06:13.527Z,7.40
2018-12-25T02:08:45.288Z,7.40
2018-12-25T02:11:17.094Z,7.40
2018-12-25T02:13:48.989Z,7.50
2018-12-25T02:16:20.958Z,7.40
2018-12-25T02:18:52.790Z,7.40
2018-12-25T02:21:24.579Z,7.30
2018-12-25T02:23:56.699Z,7.40
2018-12-25T02:26:28.515Z,7.40
2018-12-25T02:29:00.337Z,7.40
2018-12-25T02:31:32.170Z,7.40
2018-12-25T02:34:03.978Z,7.40
2018-12-25T02:36:35.789Z,7.40
2018-12-25T02:39:09.556Z,7.50
2018-12-25T02:41:41.504Z,7.40
2018-12-25T02:44:13.577Z,7.50
2018-12-25T02:46:45.359Z,7.50
2018-12-25T02:49:18.375Z,7.50
2018-12-25T02:51:50.256Z,7.60
2018-12-25T02:54:22.068Z,7.80
2018-12-25T02:56:53.908Z,7.60
2018-12-25T02:59:25.763Z,7.60
2018-12-25T03:01:57.730Z,7.50
2018-12-25T03:04:29.537Z,7.60
2018-12-25T03:07:01.717Z,7.60
2018-12-25T03:09:33.515Z,7.60
2018-12-25T03:12:05.370Z,7.60
2018-12-25T03:14:37.114Z,7.50
2018-12-25T03:17:08.942Z,7.60
2018-12-25T03:19:42.267Z,7.60
2018-12-25T03:22:14.109Z,7.60
2018-12-25T03:24:46.021Z,7.60
2018-12-25T03:27:17.818Z,7.60
2018-12-25T03:29:49.593Z,7.60
2018-12-25T03:32:21.433Z,7.60
2018-12-25T03:34:53.197Z,7.60
2018-12-25T03:37:25.020Z,7.60
2018-12-25T03:39:56.814Z,7.60
2018-12-25T03:42:28.614Z,7.50
2018-12-25T03:45:00.529Z,7.50
2018-12-25T03:47:32.743Z,7.50
2018-12-25T03:50:10.428Z,7.50
2018-12-25T03:52:38.563Z,7.50
2018-12-25T03:55:10.311Z,7.50
2018-12-25T03:57:42.090Z,7.50
2018-12-25T04:00:13.895Z,7.50
2018-12-25T04:02:45.819Z,7.50
2018-12-25T04:05:17.724Z,7.50
2018-12-25T04:07:49.642Z,7.50
2018-12-25T04:10:21.686Z,7.40
2018-12-25T04:12:53.489Z,7.50
2018-12-25T04:15:25.271Z,7.50
2018-12-25T04:17:57.164Z,6.90
2018-12-25T04:20:28.955Z,7.50
2018-12-25T04:23:00.793Z,7.50
2018-12-25T04:25:32.650Z,7.50
2018-12-25T04:28:04.794Z,7.50
2018-12-25T04:30:36.618Z,7.50
2018-12-25T04:33:08.485Z,7.50
2018-12-25T04:35:40.707Z,7.50
2018-12-25T04:38:12.637Z,7.50
2018-12-25T04:40:44.424Z,7.50
2018-12-25T04:43:16.242Z,7.50
2018-12-25T04:45:48.061Z,7.50
2018-12-25T04:48:19.886Z,7.50
2018-12-25T04:50:51.722Z,7.50
2018-12-25T04:53:23.529Z,7.50
2018-12-25T04:55:55.355Z,7.60
2018-12-25T04:58:38.839Z,7.60
2018-12-25T05:01:10.790Z,7.60
2018-12-25T05:03:42.562Z,7.60
2018-12-25T05:06:14.334Z,7.60
2018-12-25T05:08:46.190Z,7.60
2018-12-25T05:11:18.096Z,7.60
2018-12-25T05:13:49.896Z,7.60
2018-12-25T05:16:21.706Z,7.60
2018-12-25T05:18:53.493Z,7.70
2018-12-25T05:21:25.275Z,7.60
2018-12-25T05:23:57.210Z,7.60
2018-12-25T05:26:29.098Z,7.60
2018-12-25T05:29:00.872Z,7.60
2018-12-25T05:31:32.674Z,7.60
2018-12-25T05:34:04.884Z,7.60
2018-12-25T05:36:36.929Z,7.60
2018-12-25T05:39:09.475Z,7.60
2018-12-25T05:41:41.238Z,7.60
2018-12-25T05:44:13.203Z,7.50
2018-12-25T05:46:44.950Z,7.60
2018-12-25T05:49:16.760Z,7.60
2018-12-25T05:51:48.744Z,7.60
2018-12-25T05:54:20.503Z,7.50
2018-12-25T05:56:52.284Z,7.60
2018-12-25T05:59:24.124Z,7.60
2018-12-25T06:01:55.941Z,7.60
2018-12-25T06:04:27.707Z,7.60
2018-12-25T06:06:59.761Z,7.50
2018-12-25T06:09:32.813Z,7.50
2018-12-25T06:12:04.662Z,7.60
2018-12-25T06:14:36.429Z,7.50
2018-12-25T06:17:08.346Z,7.50
2018-12-25T06:19:40.112Z,7.60
2018-12-25T06:22:11.930Z,7.50
2018-12-25T06:24:43.810Z,7.50
2018-12-25T06:27:15.972Z,7.50
2018-12-25T06:29:47.941Z,7.50
2018-12-25T06:32:19.773Z,7.50
2018-12-25T06:34:51.577Z,7.50
2018-12-25T06:37:23.556Z,7.50
2018-12-25T06:39:55.377Z,7.50
2018-12-25T06:42:27.135Z,7.50
2018-12-25T06:44:59.112Z,7.50
2018-12-25T06:47:31.168Z,7.50
2018-12-25T06:50:03.058Z,7.50
2018-12-25T06:52:35.051Z,7.50
2018-12-25T06:55:06.915Z,7.50
2018-12-25T06:57:38.807Z,7.50
2018-12-25T07:00:10.901Z,7.50
2018-12-25T07:02:42.698Z,7.60
2018-12-25T07:05:14.487Z,7.60
2018-12-25T07:07:46.365Z,7.60
2018-12-25T07:10:18.381Z,7.60
2018-12-25T07:12:50.138Z,7.70
2018-12-25T07:15:22.141Z,7.60
2018-12-25T07:17:53.983Z,7.60
2018-12-25T07:20:25.945Z,7.70
2018-12-25T07:22:57.973Z,7.70
2018-12-25T07:25:29.774Z,7.70
2018-12-25T07:28:01.679Z,7.70
2018-12-25T07:30:33.593Z,7.70
2018-12-25T07:33:07.686Z,7.70
2018-12-25T07:35:39.498Z,7.70
2018-12-25T07:38:11.389Z,7.70
2018-12-25T07:40:43.364Z,7.70
2018-12-25T07:43:15.153Z,7.70
2018-12-25T07:45:46.937Z,7.70
2018-12-25T07:48:18.899Z,7.70
2018-12-25T07:50:50.872Z,7.70
2018-12-25T07:53:22.694Z,7.70
2018-12-25T07:55:54.491Z,7.70
2018-12-25T07:58:26.543Z,7.70
2018-12-25T08:00:58.518Z,7.80
2018-12-25T08:03:30.433Z,7.70
2018-12-25T08:06:02.276Z,8.10
2018-12-25T08:08:34.287Z,7.80
2018-12-25T08:11:06.135Z,7.70
2018-12-25T08:13:38.366Z,7.90
2018-12-25T08:16:10.215Z,7.80
2018-12-25T08:18:43.312Z,7.90
2018-12-25T08:21:15.131Z,7.90
2018-12-25T08:23:46.949Z,7.90
2018-12-25T08:26:18.771Z,7.90
2018-12-25T08:28:50.703Z,7.90
2018-12-25T08:31:22.583Z,7.90
2018-12-25T08:33:54.587Z,7.90
2018-12-25T08:36:26.409Z,7.90
2018-12-25T08:38:58.246Z,8.00
2018-12-25T08:41:30.130Z,8.00
2018-12-25T08:44:02.014Z,8.00
2018-12-25T08:46:33.977Z,8.00
2018-12-25T08:49:06.265Z,8.10
2018-12-25T08:51:38.148Z,9.00
2018-12-25T08:54:10.159Z,8.10
2018-12-25T08:56:42.015Z,8.20
2018-12-25T08:59:13.926Z,8.20
2018-12-25T09:01:45.844Z,8.20
2018-12-25T09:04:17.646Z,8.20
2018-12-25T09:06:49.618Z,8.30
2018-12-25T09:09:21.735Z,8.30
2018-12-25T09:11:53.881Z,8.30
2018-12-25T09:14:25.991Z,8.40
2018-12-25T09:16:58.073Z,8.40
2018-12-25T09:19:30.430Z,8.40
2018-12-25T09:22:02.287Z,8.40
2018-12-25T09:24:34.047Z,8.50
2018-12-25T09:27:05.994Z,8.50
2018-12-25T09:29:38.011Z,8.50
2018-12-25T09:32:10.168Z,8.60
2018-12-25T09:34:42.208Z,8.60
2018-12-25T09:37:14.198Z,8.70
2018-12-25T09:39:46.114Z,8.70
2018-12-25T09:42:17.993Z,8.70
2018-12-25T09:44:49.907Z,8.80
2018-12-25T09:47:21.957Z,8.80
2018-12-25T09:49:53.909Z,8.80
2018-12-25T09:52:25.746Z,8.80
2018-12-25T09:54:57.582Z,8.90
2018-12-25T09:57:29.511Z,8.90
2018-12-25T10:00:01.651Z,9.00
2018-12-25T10:02:33.489Z,9.00
2018-12-25T10:05:05.324Z,9.00
2018-12-25T10:07:39.052Z,9.10
2018-12-25T10:10:10.981Z,9.00
2018-12-25T10:12:42.986Z,9.20
2018-12-25T10:15:15.033Z,9.20
2018-12-25T10:17:46.916Z,9.30
2018-12-25T10:20:18.821Z,9.40
2018-12-25T10:22:50.980Z,9.50
2018-12-25T10:25:22.952Z,9.60
2018-12-25T10:27:54.859Z,9.70
2018-12-25T10:30:26.843Z,9.80
2018-12-25T10:32:58.790Z,9.80
2018-12-25T10:35:30.902Z,9.80
2018-12-25T10:38:02.860Z,9.90
2018-12-25T10:40:34.951Z,9.90
2018-12-25T10:43:06.835Z,10.10
2018-12-25T10:45:38.821Z,10.10
2018-12-25T10:48:10.621Z,10.30
2018-12-25T10:50:42.647Z,10.60
2018-12-25T10:53:14.721Z,10.90
2018-12-25T10:55:46.597Z,11.20
2018-12-25T10:58:18.413Z,11.50
2018-12-25T11:00:56.179Z,11.80
2018-12-25T11:03:28.698Z,12.00
2018-12-25T11:06:00.658Z,12.20
2018-12-25T11:08:32.683Z,12.30
2018-12-25T11:11:04.689Z,12.40
2018-12-25T11:13:37.157Z,12.50
2018-12-25T11:16:09.057Z,12.50
2018-12-25T11:18:48.943Z,12.60
2018-12-25T11:21:14.533Z,12.90
2018-12-25T11:23:47.821Z,13.20
2018-12-25T11:26:19.857Z,13.40
2018-12-25T11:28:51.682Z,13.50
2018-12-25T11:31:23.532Z,13.60
2018-12-25T11:33:55.478Z,13.40
2018-12-25T11:36:28.655Z,13.30
2018-12-25T11:39:00.595Z,13.20
2018-12-25T11:41:32.439Z,13.00
2018-12-25T11:44:04.632Z,12.80
2018-12-25T11:46:36.708Z,12.60
2018-12-25T11:49:09.100Z,12.50
2018-12-25T11:51:41.132Z,12.30
2018-12-25T11:54:13.267Z,12.20
2018-12-25T11:56:45.226Z,12.00
2018-12-25T11:59:17.226Z,11.90
2018-12-25T12:01:49.178Z,11.80
2018-12-25T12:04:21.832Z,11.70
2018-12-25T12:06:53.796Z,11.70
2018-12-25T12:09:25.697Z,11.60
2018-12-25T12:11:59.058Z,11.50
2018-12-25T12:14:30.866Z,11.40
2018-12-25T12:17:02.763Z,11.40
2018-12-25T12:19:34.678Z,11.40
2018-12-25T12:22:06.699Z,11.40
2018-12-25T12:24:38.513Z,11.50
2018-12-25T12:27:10.467Z,11.60
2018-12-25T12:29:42.298Z,11.60
2018-12-25T12:32:14.324Z,11.70
2018-12-25T12:34:47.565Z,11.70
2018-12-25T12:37:19.521Z,11.80
2018-12-25T12:39:52.673Z,11.80
2018-12-25T12:42:24.761Z,11.80
2018-12-25T12:44:56.653Z,11.70
2018-12-25T12:47:28.486Z,11.70
2018-12-25T12:50:01.668Z,11.70
2018-12-25T12:52:33.550Z,11.90
2018-12-25T12:55:05.723Z,11.60
2018-12-25T12:57:38.827Z,11.60
2018-12-25T13:00:11.009Z,11.60
2018-12-25T13:02:42.834Z,11.60
2018-12-25T13:05:14.740Z,11.60
2018-12-25T13:07:46.775Z,11.50
2018-12-25T13:10:18.767Z,11.50
2018-12-25T13:12:50.733Z,11.40
2018-12-25T13:15:22.784Z,11.40
2018-12-25T13:17:54.877Z,11.30
2018-12-25T13:20:27.014Z,11.20
2018-12-25T13:22:58.897Z,11.20
2018-12-25T13:25:30.780Z,11.40
2018-12-25T13:28:02.716Z,11.20
2018-12-25T13:30:34.873Z,11.10
2018-12-25T13:33:06.908Z,11.10
2018-12-25T13:35:38.720Z,11.00
2018-12-25T13:38:10.635Z,11.00
2018-12-25T13:40:42.812Z,11.00
2018-12-25T13:43:14.676Z,11.00
2018-12-25T13:45:46.695Z,10.90
2018-12-25T13:48:18.709Z,10.90
2018-12-25T13:50:50.505Z,10.80
2018-12-25T13:53:22.367Z,10.80
2018-12-25T13:55:54.361Z,10.70
2018-12-25T13:58:26.390Z,10.70
2018-12-25T14:00:58.499Z,10.70
2018-12-25T14:03:30.465Z,10.60
2018-12-25T14:06:02.488Z,10.60
2018-12-25T14:08:34.458Z,10.60
2018-12-25T14:11:06.282Z,10.50
2018-12-25T14:13:38.283Z,10.50
2018-12-25T14:16:10.170Z,10.50
2018-12-25T14:18:41.993Z,10.50
2018-12-25T14:21:13.842Z,10.40
2018-12-25T14:23:45.903Z,10.40
2018-12-25T14:26:17.771Z,10.40
2018-12-25T14:28:49.714Z,10.40
2018-12-25T14:31:21.553Z,10.40
2018-12-25T14:33:53.703Z,10.40
2018-12-25T14:36:25.768Z,10.30
2018-12-25T14:38:57.823Z,10.30
2018-12-25T14:41:29.697Z,10.30
2018-12-25T14:44:05.440Z,10.30
2018-12-25T14:46:35.206Z,10.30
2018-12-25T14:49:07.145Z,10.30
2018-12-25T14:51:39.074Z,10.20
2018-12-25T14:54:10.995Z,10.20
2018-12-25T14:56:43.162Z,10.10
2018-12-25T14:59:15.053Z,10.10
2018-12-25T15:01:47.145Z,10.10
2018-12-25T15:04:18.987Z,10.10
2018-12-25T15:06:50.860Z,10.00
2018-12-25T15:09:22.796Z,10.00
2018-12-25T15:11:54.790Z,10.00
2018-12-25T15:14:26.891Z,10.00
2018-12-25T15:16:59.095Z,10.00
2018-12-25T15:19:31.044Z,10.00
2018-12-25T15:22:02.985Z,9.90
2018-12-25T15:24:35.886Z,9.90
2018-12-25T15:27:07.773Z,9.90
2018-12-25T15:29:39.942Z,9.90
2018-12-25T15:32:12.196Z,9.80
2018-12-25T15:34:44.348Z,9.80
2018-12-25T15:37:16.408Z,9.80
2018-12-25T15:39:49.869Z,9.80
2018-12-25T15:42:21.728Z,9.80
2018-12-25T15:44:53.742Z,9.70
2018-12-25T15:47:25.726Z,9.70
2018-12-25T15:49:57.720Z,9.70
2018-12-25T15:52:29.678Z,9.60
2018-12-25T15:55:01.729Z,9.60
2018-12-25T15:57:33.621Z,9.60
2018-12-25T16:00:07.770Z,9.60
2018-12-25T16:02:39.749Z,9.60
2018-12-25T16:05:11.796Z,9.50
2018-12-25T16:07:43.647Z,9.50
2018-12-25T16:10:15.606Z,9.50
2018-12-25T16:12:47.436Z,9.50
2018-12-25T16:15:19.557Z,9.50
2018-12-25T16:17:51.544Z,9.40
2018-12-25T16:20:23.528Z,9.40
2018-12-25T16:22:55.599Z,9.40
2018-12-25T16:25:27.549Z,9.40
2018-12-25T16:27:59.487Z,9.40
2018-12-25T16:30:31.344Z,9.40
2018-12-25T16:33:03.414Z,9.40
2018-12-25T16:35:35.307Z,9.40
2018-12-25T16:38:07.319Z,9.40
2018-12-25T16:40:39.311Z,9.40
2018-12-25T16:43:11.284Z,9.40
2018-12-25T16:45:43.202Z,9.30
2018-12-25T16:48:14.993Z,9.30
2018-12-25T16:50:46.886Z,9.30
2018-12-25T16:53:18.792Z,9.30
2018-12-25T16:55:50.814Z,9.30
2018-12-25T16:58:22.810Z,9.30
2018-12-25T17:00:54.716Z,9.30
2018-12-25T17:03:26.546Z,9.20
2018-12-25T17:05:58.581Z,9.20
2018-12-25T17:08:30.634Z,9.20
2018-12-25T17:11:02.734Z,9.20
2018-12-25T17:13:35.060Z,9.20
2018-12-25T17:16:07.081Z,9.20
2018-12-25T17:18:39.395Z,9.10
2018-12-25T17:21:11.247Z,9.10
2018-12-25T17:23:43.203Z,9.10
2018-12-25T17:26:15.034Z,9.10
2018-12-25T17:28:46.890Z,9.00
2018-12-25T17:31:20.680Z,9.00
2018-12-25T17:33:52.812Z,9.00
2018-12-25T17:36:24.703Z,9.00
2018-12-25T17:38:56.540Z,9.00
2018-12-25T17:41:28.608Z,9.00
2018-12-25T17:44:00.771Z,8.90
2018-12-25T17:46:32.805Z,8.90
2018-12-25T17:49:05.032Z,8.90
2018-12-25T17:51:37.061Z,8.90
2018-12-25T17:54:10.882Z,8.90
2018-12-25T17:56:42.719Z,8.90
2018-12-25T17:59:14.608Z,8.90
2018-12-25T18:01:47.659Z,8.80
2018-12-25T18:04:19.668Z,8.90
2018-12-25T18:06:51.555Z,8.80
2018-12-25T18:09:23.645Z,8.80
2018-12-25T18:11:55.553Z,8.80
2018-12-25T18:14:27.536Z,8.80
2018-12-25T18:16:59.412Z,8.80
2018-12-25T18:19:31.442Z,8.80
2018-12-25T18:22:03.910Z,8.80
2018-12-25T18:24:36.158Z,8.90
2018-12-25T18:27:08.139Z,8.90
2018-12-25T18:29:40.031Z,8.80
2018-12-25T18:32:12.004Z,8.80
2018-12-25T18:34:44.999Z,8.80
2018-12-25T18:37:16.852Z,8.80
2018-12-25T18:39:58.685Z,8.80
2018-12-25T18:42:30.580Z,8.80
2018-12-25T18:45:03.951Z,8.80
2018-12-25T18:47:35.794Z,8.80
2018-12-25T18:50:08.958Z,8.80
2018-12-25T18:52:41.039Z,8.80
2018-12-25T18:55:12.905Z,8.80
2018-12-25T18:57:44.855Z,8.80
2018-12-25T19:00:17.886Z,8.80
2018-12-25T19:02:50.370Z,8.80
2018-12-25T19:05:22.467Z,8.70
2018-12-25T19:07:54.946Z,8.70
2018-12-25T19:10:27.230Z,8.60
2018-12-25T19:12:59.384Z,8.60
2018-12-25T19:15:33.775Z,8.60
2018-12-25T19:18:08.202Z,8.60
2018-12-25T19:20:40.083Z,8.50
2018-12-25T19:23:12.052Z,8.50
2018-12-25T19:25:44.281Z,8.40
2018-12-25T19:28:16.408Z,8.40
2018-12-25T19:30:48.426Z,8.40
2018-12-25T19:33:20.277Z,8.40
2018-12-25T19:35:52.132Z,8.40
2018-12-25T19:38:24.024Z,8.30
2018-12-25T19:40:56.498Z,8.30
2018-12-25T19:43:28.360Z,8.20
2018-12-25T19:46:01.010Z,8.20
2018-12-25T19:48:32.904Z,8.20
2018-12-25T19:51:04.812Z,8.10
2018-12-25T19:53:36.868Z,8.10
2018-12-25T19:56:08.907Z,7.60
2018-12-25T19:58:40.967Z,8.00
2018-12-25T20:01:12.912Z,7.90
2018-12-25T20:04:00.976Z,7.80
2018-12-25T20:07:08.859Z,7.80
2018-12-25T20:10:24.179Z,7.70
2018-12-25T20:14:03.209Z,7.60
2018-12-25T20:17:30.446Z,7.50
2018-12-25T20:21:04.756Z,7.40
2018-12-25T20:24:27.794Z,7.30
2018-12-25T20:27:55.103Z,7.20
2018-12-25T20:31:31.218Z,7.10
2018-12-25T20:34:47.774Z,7.00
2018-12-25T20:38:13.323Z,6.90
2018-12-25T20:41:37.062Z,6.90
2018-12-25T20:45:29.021Z,6.80
2018-12-25T20:49:08.800Z,6.70
2018-12-25T20:52:55.331Z,6.70
2018-12-25T20:56:50.878Z,6.60
2018-12-25T21:00:27.812Z,6.50
2018-12-25T21:04:20.037Z,6.40
2018-12-25T21:08:18.957Z,6.40
2018-12-25T21:12:07.618Z,6.30
2018-12-25T21:15:40.120Z,6.20
2018-12-25T21:19:30.109Z,6.20
2018-12-25T21:22:44.425Z,6.10
2018-12-25T21:26:09.803Z,6.10
2018-12-25T21:28:41.736Z,6.00
2018-12-25T21:31:13.958Z,6.00
2018-12-25T21:33:46.089Z,5.90
2018-12-25T21:36:19.423Z,5.90
2018-12-25T21:38:51.358Z,5.90
2018-12-25T21:41:23.793Z,5.80
2018-12-25T21:43:56.608Z,5.80
2018-12-25T21:46:29.362Z,5.80
2018-12-25T21:49:01.731Z,5.90
2018-12-25T21:51:33.989Z,5.80
2018-12-25T21:54:06.152Z,5.70
2018-12-25T21:56:38.497Z,5.70
2018-12-25T21:59:10.807Z,5.70
2018-12-25T22:01:42.610Z,5.70
2018-12-25T22:04:15.706Z,5.70
2018-12-25T22:06:47.728Z,5.60
2018-12-25T22:09:19.812Z,5.60
2018-12-25T22:11:51.866Z,5.60
2018-12-25T22:14:23.867Z,5.60
2018-12-25T22:16:55.838Z,5.50
2018-12-25T22:19:27.833Z,5.50
2018-12-25T22:22:01.186Z,5.50
2018-12-25T22:24:33.260Z,5.40
2018-12-25T22:27:05.383Z,5.90
2018-12-25T22:29:37.288Z,5.40
2018-12-25T22:32:10.561Z,5.30
2018-12-25T22:34:42.574Z,5.30
2018-12-25T22:37:14.512Z,5.30
2018-12-25T22:39:46.426Z,5.30
2018-12-25T22:42:18.437Z,5.20
2018-12-25T22:44:50.443Z,5.20
2018-12-25T22:47:22.365Z,5.20
2018-12-25T22:49:54.243Z,5.20
2018-12-25T22:52:26.092Z,5.10
2018-12-25T22:54:58.160Z,5.10
2018-12-25T22:57:29.999Z,5.10
2018-12-25T23:00:03.076Z,5.10
2018-12-25T23:02:35.120Z,5.00
2018-12-25T23:05:07.275Z,5.00
2018-12-25T23:07:39.065Z,5.00
2018-12-25T23:10:11.254Z,5.00
2018-12-25T23:12:43.506Z,5.00
2018-12-25T23:15:15.459Z,4.90
2018-12-25T23:17:47.467Z,4.90
2018-12-25T23:20:19.493Z,4.90
2018-12-25T23:22:51.379Z,4.90
2018-12-25T23:25:23.295Z,4.90
2018-12-25T23:27:55.094Z,4.80
2018-12-25T23:30:27.095Z,4.80
2018-12-25T23:32:59.137Z,4.80
2018-12-25T23:35:30.951Z,4.80
2018-12-25T23:38:03.207Z,4.80
2018-12-25T23:40:35.558Z,4.80
2018-12-25T23:43:07.504Z,4.70
2018-12-25T23:45:39.366Z,4.70
2018-12-25T23:48:11.337Z,4.70
2018-12-25T23:50:43.471Z,4.70
2018-12-25T23:53:15.584Z,4.70
2018-12-25T23:55:52.951Z,4.60
2018-12-25T23:58:21.093Z,4.60
